TO4690 LFPO-LEMH
Flight info
| Callsign | TO4690 |
|---|---|
| Flight time | 1h 26m |
| Altitude | 37000 |
| Route | ERIXU DCT ETAMO DCT VALKU DCT ATSUP DCT MINSO DCT DEGOL DCT PPG DCT ALBER P84 GIR N727 SARGO |
| Aircraft | A20N/M-SDE2E3FGHIRWXY/LB1 |
Departure
| Time | 2026-04-20 14:13 |
|---|---|
| Airport | Paris-Orly Airport (LFPO) |
Arrival
| Time | 2026-04-20 15:39 |
|---|---|
| Airport | Menorca Airport (LEMH) |
| Time | Latitude | Longitude | Altitude | Speed | Heading |
|---|---|---|---|---|---|
| 2026-04-20 13:54 | 48.72726 | 2.36753 | 291 ft | 0 kts | 22° |
| 2026-04-20 14:03 | 48.72715 | 2.36747 | 291 ft | 2 kts | 21° |
| 2026-04-20 14:03 | 48.72701 | 2.36738 | 291 ft | 2 kts | 22° |
| 2026-04-20 14:03 | 48.72687 | 2.36730 | 291 ft | 2 kts | 22° |
| 2026-04-20 14:04 | 48.72674 | 2.36721 | 291 ft | 2 kts | 22° |
| 2026-04-20 14:04 | 48.72660 | 2.36713 | 291 ft | 2 kts | 22° |
| 2026-04-20 14:04 | 48.72646 | 2.36705 | 291 ft | 2 kts | 4° |
| 2026-04-20 14:04 | 48.72631 | 2.36706 | 291 ft | 2 kts | 346° |
| 2026-04-20 14:05 | 48.72618 | 2.36717 | 291 ft | 2 kts | 307° |
| 2026-04-20 14:05 | 48.72612 | 2.36738 | 291 ft | 2 kts | 271° |
| 2026-04-20 14:05 | 48.72615 | 2.36759 | 291 ft | 2 kts | 243° |
| 2026-04-20 14:05 | 48.72620 | 2.36780 | 291 ft | 2 kts | 252° |
| 2026-04-20 14:06 | 48.72623 | 2.36790 | 291 ft | 0 kts | 250° |
| 2026-04-20 14:07 | 48.72622 | 2.36786 | 291 ft | 1 kts | 250° |
| 2026-04-20 14:08 | 48.72616 | 2.36760 | 291 ft | 3 kts | 250° |
| 2026-04-20 14:08 | 48.72604 | 2.36712 | 291 ft | 5 kts | 250° |
| 2026-04-20 14:08 | 48.72587 | 2.36647 | 291 ft | 7 kts | 241° |
| 2026-04-20 14:08 | 48.72545 | 2.36605 | 291 ft | 8 kts | 181° |
| 2026-04-20 14:09 | 48.72492 | 2.36576 | 291 ft | 8 kts | 232° |
| 2026-04-20 14:09 | 48.72469 | 2.36483 | 291 ft | 10 kts | 254° |
| 2026-04-20 14:09 | 48.72449 | 2.36373 | 291 ft | 11 kts | 255° |
| 2026-04-20 14:09 | 48.72428 | 2.36253 | 291 ft | 12 kts | 254° |
| 2026-04-20 14:10 | 48.72404 | 2.36123 | 291 ft | 13 kts | 254° |
| 2026-04-20 14:10 | 48.72378 | 2.35986 | 291 ft | 14 kts | 253° |
| 2026-04-20 14:10 | 48.72351 | 2.35841 | 291 ft | 14 kts | 254° |
| 2026-04-20 14:10 | 48.72322 | 2.35690 | 291 ft | 15 kts | 250° |
| 2026-04-20 14:11 | 48.72246 | 2.35601 | 291 ft | 14 kts | 183° |
| 2026-04-20 14:11 | 48.72144 | 2.35635 | 291 ft | 15 kts | 163° |
| 2026-04-20 14:11 | 48.72049 | 2.35707 | 291 ft | 15 kts | 131° |
| 2026-04-20 14:11 | 48.71995 | 2.35835 | 291 ft | 13 kts | 126° |
| 2026-04-20 14:12 | 48.71957 | 2.35907 | 291 ft | 8 kts | 109° |
| 2026-04-20 14:12 | 48.71966 | 2.35996 | 291 ft | 9 kts | 75° |
| 2026-04-20 14:12 | 48.72009 | 2.36241 | 291 ft | 56 kts | 74° |
| 2026-04-20 14:12 | 48.72185 | 2.37150 | 291 ft | 121 kts | 72° |
| 2026-04-20 14:13 | 48.72435 | 2.38643 | 383 ft | 163 kts | 75° |
| 2026-04-20 14:13 | 48.72725 | 2.40298 | 953 ft | 168 kts | 75° |
| 2026-04-20 14:13 | 48.73034 | 2.41978 | 1774 ft | 164 kts | 71° |
| 2026-04-20 14:13 | 48.73341 | 2.43584 | 2465 ft | 164 kts | 71° |
| 2026-04-20 14:14 | 48.73672 | 2.45302 | 2872 ft | 180 kts | 71° |
| 2026-04-20 14:14 | 48.74027 | 2.47226 | 3290 ft | 197 kts | 74° |
| 2026-04-20 14:14 | 48.74283 | 2.49371 | 3636 ft | 221 kts | 81° |
| 2026-04-20 14:14 | 48.74359 | 2.51787 | 4090 ft | 241 kts | 88° |
| 2026-04-20 14:15 | 48.74318 | 2.54379 | 4665 ft | 256 kts | 89° |
| 2026-04-20 14:15 | 48.73993 | 2.57076 | 5442 ft | 266 kts | 113° |
| 2026-04-20 14:15 | 48.72818 | 2.59218 | 6279 ft | 275 kts | 142° |
| 2026-04-20 14:15 | 48.71068 | 2.60326 | 7119 ft | 281 kts | 165° |
| 2026-04-20 14:16 | 48.69155 | 2.60984 | 7945 ft | 286 kts | 166° |
| 2026-04-20 14:16 | 48.67197 | 2.61656 | 8747 ft | 291 kts | 166° |
| 2026-04-20 14:16 | 48.65201 | 2.62016 | 9500 ft | 296 kts | 187° |
| 2026-04-20 14:16 | 48.63275 | 2.61020 | 10302 ft | 294 kts | 216° |
| 2026-04-20 14:17 | 48.61818 | 2.58916 | 10933 ft | 299 kts | 233° |
| 2026-04-20 14:17 | 48.60485 | 2.56377 | 11373 ft | 315 kts | 234° |
| 2026-04-20 14:17 | 48.59123 | 2.53782 | 12001 ft | 324 kts | 234° |
| 2026-04-20 14:17 | 48.57702 | 2.51140 | 12821 ft | 326 kts | 233° |
| 2026-04-20 14:18 | 48.56267 | 2.48516 | 13642 ft | 328 kts | 234° |
| 2026-04-20 14:18 | 48.54813 | 2.45873 | 14413 ft | 330 kts | 234° |
| 2026-04-20 14:18 | 48.53303 | 2.43253 | 15014 ft | 335 kts | 229° |
| 2026-04-20 14:18 | 48.51533 | 2.40906 | 15776 ft | 341 kts | 220° |
| 2026-04-20 14:19 | 48.49573 | 2.38958 | 16528 ft | 345 kts | 215° |
| 2026-04-20 14:19 | 48.47492 | 2.37105 | 17236 ft | 348 kts | 214° |
| 2026-04-20 14:19 | 48.45396 | 2.35272 | 17923 ft | 351 kts | 214° |
| 2026-04-20 14:19 | 48.43290 | 2.33430 | 18596 ft | 354 kts | 215° |
| 2026-04-20 14:20 | 48.41148 | 2.31549 | 19252 ft | 357 kts | 215° |
| 2026-04-20 14:20 | 48.39005 | 2.29666 | 19901 ft | 359 kts | 216° |
| 2026-04-20 14:20 | 48.36863 | 2.27785 | 20534 ft | 361 kts | 216° |
| 2026-04-20 14:20 | 48.34695 | 2.25877 | 21165 ft | 364 kts | 216° |
| 2026-04-20 14:21 | 48.32512 | 2.23957 | 21784 ft | 366 kts | 216° |
| 2026-04-20 14:21 | 48.30221 | 2.22262 | 22347 ft | 377 kts | 204° |
| 2026-04-20 14:21 | 48.27589 | 2.21517 | 22887 ft | 393 kts | 188° |
| 2026-04-20 14:21 | 48.24836 | 2.21832 | 23442 ft | 404 kts | 177° |
| 2026-04-20 14:22 | 48.22070 | 2.22517 | 23965 ft | 409 kts | 176° |
| 2026-04-20 14:22 | 48.19259 | 2.23256 | 24474 ft | 412 kts | 176° |
| 2026-04-20 14:22 | 48.16440 | 2.23978 | 24999 ft | 415 kts | 176° |
| 2026-04-20 14:22 | 48.13573 | 2.24688 | 25508 ft | 417 kts | 176° |
| 2026-04-20 14:23 | 48.10699 | 2.25386 | 25994 ft | 420 kts | 177° |
| 2026-04-20 14:23 | 48.07811 | 2.25925 | 26457 ft | 419 kts | 181° |
| 2026-04-20 14:23 | 48.04923 | 2.26194 | 26925 ft | 419 kts | 184° |
| 2026-04-20 14:23 | 48.02013 | 2.26375 | 27369 ft | 422 kts | 184° |
| 2026-04-20 14:24 | 47.99062 | 2.26558 | 27784 ft | 425 kts | 184° |
| 2026-04-20 14:24 | 47.96131 | 2.26741 | 28200 ft | 427 kts | 184° |
| 2026-04-20 14:24 | 47.93150 | 2.26928 | 28588 ft | 430 kts | 184° |
| 2026-04-20 14:24 | 47.90127 | 2.27117 | 28994 ft | 433 kts | 184° |
| 2026-04-20 14:25 | 47.87097 | 2.27307 | 29390 ft | 435 kts | 184° |
| 2026-04-20 14:25 | 47.84078 | 2.27499 | 29760 ft | 437 kts | 184° |
| 2026-04-20 14:25 | 47.81017 | 2.27693 | 30110 ft | 440 kts | 184° |
| 2026-04-20 14:25 | 47.78000 | 2.27883 | 30467 ft | 442 kts | 184° |
| 2026-04-20 14:26 | 47.74901 | 2.28082 | 30896 ft | 441 kts | 184° |
| 2026-04-20 14:26 | 47.71859 | 2.28276 | 31366 ft | 439 kts | 184° |
| 2026-04-20 14:26 | 47.68850 | 2.28467 | 31790 ft | 437 kts | 184° |
| 2026-04-20 14:26 | 47.65794 | 2.28658 | 32149 ft | 437 kts | 184° |
| 2026-04-20 14:27 | 47.62773 | 2.28848 | 32476 ft | 438 kts | 184° |
| 2026-04-20 14:27 | 47.59753 | 2.29037 | 32839 ft | 437 kts | 184° |
| 2026-04-20 14:27 | 47.56721 | 2.29228 | 33194 ft | 436 kts | 184° |
| 2026-04-20 14:27 | 47.53712 | 2.29417 | 33518 ft | 436 kts | 184° |
| 2026-04-20 14:28 | 47.50696 | 2.29607 | 33859 ft | 435 kts | 184° |
| 2026-04-20 14:28 | 47.47662 | 2.29798 | 34204 ft | 434 kts | 184° |
| 2026-04-20 14:28 | 47.44684 | 2.29985 | 34515 ft | 433 kts | 185° |
| 2026-04-20 14:28 | 47.41674 | 2.30172 | 34812 ft | 433 kts | 184° |
| 2026-04-20 14:29 | 47.38676 | 2.30358 | 35088 ft | 432 kts | 184° |
| 2026-04-20 14:29 | 47.35671 | 2.30543 | 35335 ft | 431 kts | 184° |
| 2026-04-20 14:29 | 47.32668 | 2.30729 | 35569 ft | 432 kts | 184° |
| 2026-04-20 14:29 | 47.29698 | 2.30914 | 35764 ft | 433 kts | 184° |
| 2026-04-20 14:30 | 47.26691 | 2.31100 | 35951 ft | 434 kts | 184° |
| 2026-04-20 14:30 | 47.23647 | 2.31289 | 36137 ft | 435 kts | 184° |
| 2026-04-20 14:30 | 47.20660 | 2.31474 | 36321 ft | 436 kts | 184° |
| 2026-04-20 14:30 | 47.17624 | 2.31662 | 36518 ft | 436 kts | 184° |
| 2026-04-20 14:31 | 47.14617 | 2.31848 | 36656 ft | 438 kts | 184° |
| 2026-04-20 14:31 | 47.11541 | 2.32037 | 36745 ft | 441 kts | 184° |
| 2026-04-20 14:31 | 47.08466 | 2.32227 | 36859 ft | 444 kts | 184° |
| 2026-04-20 14:31 | 47.05389 | 2.32417 | 36959 ft | 447 kts | 183° |
| 2026-04-20 14:32 | 46.99117 | 2.32805 | 37053 ft | 454 kts | 183° |
| 2026-04-20 14:32 | 46.92780 | 2.33203 | 37044 ft | 462 kts | 182° |
| 2026-04-20 14:33 | 46.86327 | 2.34245 | 37040 ft | 471 kts | 175° |
| 2026-04-20 14:33 | 46.79927 | 2.36402 | 37041 ft | 476 kts | 168° |
| 2026-04-20 14:34 | 46.73647 | 2.39674 | 37040 ft | 481 kts | 163° |
| 2026-04-20 14:34 | 46.67456 | 2.43279 | 37034 ft | 480 kts | 162° |
| 2026-04-20 14:35 | 46.61227 | 2.46882 | 37031 ft | 480 kts | 163° |
| 2026-04-20 14:35 | 46.55029 | 2.50445 | 37029 ft | 480 kts | 163° |
| 2026-04-20 14:36 | 46.48832 | 2.53996 | 37031 ft | 480 kts | 163° |
| 2026-04-20 14:36 | 46.42661 | 2.57522 | 37023 ft | 480 kts | 163° |
| 2026-04-20 14:37 | 46.36431 | 2.61074 | 37022 ft | 480 kts | 163° |
| 2026-04-20 14:37 | 46.30215 | 2.64610 | 37015 ft | 480 kts | 163° |
| 2026-04-20 14:38 | 46.24013 | 2.68132 | 37010 ft | 479 kts | 164° |
| 2026-04-20 14:38 | 46.17822 | 2.71636 | 37010 ft | 479 kts | 164° |
| 2026-04-20 14:39 | 46.11633 | 2.75130 | 37001 ft | 480 kts | 163° |
| 2026-04-20 14:39 | 46.05425 | 2.78631 | 36993 ft | 480 kts | 163° |
| 2026-04-20 14:40 | 45.99233 | 2.82106 | 36995 ft | 479 kts | 164° |
| 2026-04-20 14:40 | 45.93001 | 2.85415 | 36999 ft | 478 kts | 165° |
| 2026-04-20 14:41 | 45.86765 | 2.88680 | 36992 ft | 478 kts | 165° |
| 2026-04-20 14:41 | 45.80467 | 2.91843 | 36995 ft | 475 kts | 169° |
| 2026-04-20 14:42 | 45.74097 | 2.93978 | 36996 ft | 470 kts | 176° |
| 2026-04-20 14:42 | 45.67650 | 2.94952 | 36994 ft | 464 kts | 184° |
| 2026-04-20 14:43 | 45.61247 | 2.94915 | 36993 ft | 461 kts | 187° |
| 2026-04-20 14:43 | 45.54844 | 2.94728 | 36987 ft | 461 kts | 187° |
| 2026-04-20 14:44 | 45.48443 | 2.94554 | 36988 ft | 461 kts | 187° |
| 2026-04-20 14:44 | 45.42074 | 2.94385 | 36985 ft | 461 kts | 187° |
| 2026-04-20 14:45 | 45.35659 | 2.94218 | 36985 ft | 461 kts | 187° |
| 2026-04-20 14:45 | 45.29257 | 2.94051 | 36989 ft | 461 kts | 187° |
| 2026-04-20 14:46 | 45.22870 | 2.93887 | 36988 ft | 461 kts | 187° |
| 2026-04-20 14:46 | 45.16477 | 2.93722 | 36989 ft | 461 kts | 186° |
| 2026-04-20 14:47 | 45.10054 | 2.93556 | 36989 ft | 461 kts | 187° |
| 2026-04-20 14:48 | 45.00471 | 2.93310 | 36981 ft | 461 kts | 187° |
| 2026-04-20 14:48 | 44.94056 | 2.93146 | 36988 ft | 461 kts | 186° |
| 2026-04-20 14:49 | 44.87674 | 2.92984 | 36984 ft | 460 kts | 186° |
| 2026-04-20 14:49 | 44.81292 | 2.92718 | 36988 ft | 458 kts | 188° |
| 2026-04-20 14:50 | 44.74955 | 2.92222 | 36984 ft | 458 kts | 188° |
| 2026-04-20 14:50 | 44.68584 | 2.91730 | 36975 ft | 458 kts | 188° |
| 2026-04-20 14:51 | 44.62248 | 2.91258 | 36969 ft | 458 kts | 188° |
| 2026-04-20 14:51 | 44.55880 | 2.90790 | 36970 ft | 458 kts | 188° |
| 2026-04-20 14:52 | 44.49529 | 2.90329 | 36967 ft | 457 kts | 188° |
| 2026-04-20 14:52 | 44.43195 | 2.89870 | 36960 ft | 457 kts | 188° |
| 2026-04-20 14:53 | 44.36863 | 2.89412 | 36959 ft | 456 kts | 188° |
| 2026-04-20 14:53 | 44.30543 | 2.88956 | 36963 ft | 456 kts | 188° |
| 2026-04-20 14:54 | 44.24175 | 2.88496 | 36960 ft | 456 kts | 188° |
| 2026-04-20 14:54 | 44.17836 | 2.88042 | 36961 ft | 456 kts | 188° |
| 2026-04-20 14:55 | 44.11546 | 2.87592 | 36951 ft | 456 kts | 188° |
| 2026-04-20 14:55 | 44.05196 | 2.87137 | 36941 ft | 456 kts | 188° |
| 2026-04-20 14:56 | 43.98854 | 2.86685 | 36927 ft | 456 kts | 188° |
| 2026-04-20 14:56 | 43.92565 | 2.86238 | 36934 ft | 455 kts | 188° |
| 2026-04-20 14:57 | 43.86251 | 2.85791 | 36941 ft | 454 kts | 188° |
| 2026-04-20 14:57 | 43.79966 | 2.85346 | 36942 ft | 452 kts | 188° |
| 2026-04-20 14:58 | 43.73629 | 2.85278 | 36949 ft | 455 kts | 185° |
| 2026-04-20 14:58 | 43.67322 | 2.85366 | 36950 ft | 455 kts | 184° |
| 2026-04-20 14:59 | 43.60981 | 2.85454 | 36949 ft | 455 kts | 184° |
| 2026-04-20 14:59 | 43.54684 | 2.85547 | 36949 ft | 454 kts | 184° |
| 2026-04-20 15:00 | 43.48416 | 2.85638 | 36940 ft | 453 kts | 184° |
| 2026-04-20 15:00 | 43.42101 | 2.85729 | 36933 ft | 453 kts | 184° |
| 2026-04-20 15:01 | 43.35808 | 2.85821 | 36925 ft | 451 kts | 184° |
| 2026-04-20 15:01 | 43.29562 | 2.85911 | 36924 ft | 451 kts | 184° |
| 2026-04-20 15:01 | 43.26403 | 2.85957 | 37122 ft | 450 kts | 184° |
| 2026-04-20 15:02 | 43.23326 | 2.86003 | 36790 ft | 449 kts | 184° |
| 2026-04-20 15:02 | 43.20177 | 2.86049 | 37030 ft | 449 kts | 184° |
| 2026-04-20 15:02 | 43.17062 | 2.86096 | 36972 ft | 448 kts | 184° |
| 2026-04-20 15:03 | 43.10833 | 2.86183 | 36934 ft | 447 kts | 184° |
| 2026-04-20 15:03 | 43.04664 | 2.86276 | 36926 ft | 446 kts | 184° |
| 2026-04-20 15:04 | 42.98448 | 2.86366 | 36930 ft | 445 kts | 184° |
| 2026-04-20 15:04 | 42.92269 | 2.86455 | 36926 ft | 445 kts | 184° |
| 2026-04-20 15:05 | 42.86057 | 2.86546 | 36926 ft | 446 kts | 184° |
| 2026-04-20 15:05 | 42.79863 | 2.86637 | 36927 ft | 446 kts | 184° |
| 2026-04-20 15:05 | 42.76767 | 2.86665 | 36711 ft | 444 kts | 185° |
| 2026-04-20 15:06 | 42.73708 | 2.86528 | 36857 ft | 443 kts | 188° |
| 2026-04-20 15:06 | 42.67563 | 2.85821 | 36921 ft | 447 kts | 190° |
| 2026-04-20 15:07 | 42.61332 | 2.85086 | 36928 ft | 450 kts | 189° |
| 2026-04-20 15:07 | 42.55093 | 2.84358 | 36931 ft | 452 kts | 189° |
| 2026-04-20 15:08 | 42.48840 | 2.83629 | 36931 ft | 452 kts | 189° |
| 2026-04-20 15:08 | 42.42540 | 2.82896 | 36930 ft | 454 kts | 189° |
| 2026-04-20 15:09 | 42.36251 | 2.82154 | 36929 ft | 456 kts | 189° |
| 2026-04-20 15:09 | 42.29914 | 2.81414 | 36936 ft | 457 kts | 189° |
| 2026-04-20 15:10 | 42.23574 | 2.80683 | 36943 ft | 459 kts | 189° |
| 2026-04-20 15:10 | 42.17216 | 2.79945 | 36937 ft | 460 kts | 189° |
| 2026-04-20 15:11 | 42.10844 | 2.79214 | 36941 ft | 461 kts | 189° |
| 2026-04-20 15:11 | 42.04449 | 2.78472 | 36933 ft | 462 kts | 189° |
| 2026-04-20 15:12 | 41.98022 | 2.78370 | 36936 ft | 467 kts | 178° |
| 2026-04-20 15:12 | 41.91656 | 2.80267 | 36942 ft | 474 kts | 163° |
| 2026-04-20 15:13 | 41.85721 | 2.84161 | 36941 ft | 480 kts | 149° |
| 2026-04-20 15:13 | 41.80253 | 2.89348 | 36906 ft | 482 kts | 146° |
| 2026-04-20 15:13 | 41.77543 | 2.91977 | 36253 ft | 486 kts | 146° |
| 2026-04-20 15:14 | 41.74777 | 2.94644 | 35400 ft | 490 kts | 146° |
| 2026-04-20 15:14 | 41.72031 | 2.97275 | 34528 ft | 494 kts | 146° |
| 2026-04-20 15:14 | 41.69220 | 2.99957 | 33598 ft | 494 kts | 146° |
| 2026-04-20 15:14 | 41.66451 | 3.02596 | 32773 ft | 493 kts | 146° |
| 2026-04-20 15:15 | 41.63689 | 3.05219 | 32286 ft | 484 kts | 146° |
| 2026-04-20 15:15 | 41.60970 | 3.07802 | 31835 ft | 475 kts | 147° |
| 2026-04-20 15:15 | 41.58306 | 3.10327 | 31358 ft | 469 kts | 147° |
| 2026-04-20 15:15 | 41.55662 | 3.12828 | 30883 ft | 463 kts | 147° |
| 2026-04-20 15:16 | 41.53077 | 3.15270 | 30421 ft | 457 kts | 147° |
| 2026-04-20 15:16 | 41.50491 | 3.17707 | 29940 ft | 453 kts | 147° |
| 2026-04-20 15:16 | 41.47859 | 3.20008 | 29464 ft | 447 kts | 150° |
| 2026-04-20 15:16 | 41.45259 | 3.22150 | 29005 ft | 443 kts | 150° |
| 2026-04-20 15:17 | 41.42641 | 3.24299 | 28527 ft | 439 kts | 150° |
| 2026-04-20 15:17 | 41.40063 | 3.26415 | 28064 ft | 435 kts | 150° |
| 2026-04-20 15:17 | 41.37489 | 3.28527 | 27614 ft | 431 kts | 150° |
| 2026-04-20 15:17 | 41.34959 | 3.30604 | 27172 ft | 427 kts | 150° |
| 2026-04-20 15:18 | 41.32440 | 3.32669 | 26738 ft | 423 kts | 150° |
| 2026-04-20 15:18 | 41.29973 | 3.34691 | 26296 ft | 420 kts | 150° |
| 2026-04-20 15:18 | 41.27497 | 3.36718 | 25850 ft | 417 kts | 150° |
| 2026-04-20 15:18 | 41.25024 | 3.38742 | 25412 ft | 413 kts | 150° |
| 2026-04-20 15:19 | 41.22607 | 3.40717 | 24977 ft | 410 kts | 150° |
| 2026-04-20 15:19 | 41.20178 | 3.42699 | 24523 ft | 408 kts | 150° |
| 2026-04-20 15:19 | 41.17754 | 3.44677 | 24067 ft | 405 kts | 150° |
| 2026-04-20 15:19 | 41.15359 | 3.46624 | 23618 ft | 403 kts | 150° |
| 2026-04-20 15:20 | 41.12982 | 3.48555 | 23171 ft | 401 kts | 150° |
| 2026-04-20 15:20 | 41.10630 | 3.50465 | 22730 ft | 399 kts | 150° |
| 2026-04-20 15:20 | 41.08281 | 3.52372 | 22280 ft | 397 kts | 150° |
| 2026-04-20 15:20 | 41.05919 | 3.54286 | 21834 ft | 395 kts | 150° |
| 2026-04-20 15:21 | 41.03599 | 3.56163 | 21418 ft | 392 kts | 150° |
| 2026-04-20 15:21 | 41.01279 | 3.58038 | 20976 ft | 390 kts | 150° |
| 2026-04-20 15:21 | 40.98980 | 3.59896 | 20564 ft | 387 kts | 150° |
| 2026-04-20 15:21 | 40.96688 | 3.61747 | 20137 ft | 384 kts | 150° |
| 2026-04-20 15:22 | 40.94432 | 3.63567 | 19709 ft | 382 kts | 150° |
| 2026-04-20 15:22 | 40.92162 | 3.65399 | 19275 ft | 379 kts | 151° |
| 2026-04-20 15:22 | 40.89996 | 3.67146 | 18864 ft | 377 kts | 151° |
| 2026-04-20 15:22 | 40.87695 | 3.69000 | 18407 ft | 374 kts | 151° |
| 2026-04-20 15:23 | 40.85475 | 3.70787 | 17947 ft | 373 kts | 151° |
| 2026-04-20 15:23 | 40.83284 | 3.72550 | 17523 ft | 370 kts | 151° |
| 2026-04-20 15:23 | 40.81089 | 3.74314 | 17074 ft | 368 kts | 151° |
| 2026-04-20 15:23 | 40.78896 | 3.76076 | 16640 ft | 366 kts | 151° |
| 2026-04-20 15:24 | 40.76732 | 3.77812 | 16203 ft | 364 kts | 151° |
| 2026-04-20 15:24 | 40.74597 | 3.79524 | 15755 ft | 362 kts | 151° |
| 2026-04-20 15:24 | 40.72448 | 3.81247 | 15313 ft | 360 kts | 151° |
| 2026-04-20 15:24 | 40.70336 | 3.82938 | 14875 ft | 357 kts | 151° |
| 2026-04-20 15:25 | 40.68204 | 3.84644 | 14443 ft | 355 kts | 151° |
| 2026-04-20 15:25 | 40.66117 | 3.86314 | 14034 ft | 353 kts | 150° |
| 2026-04-20 15:25 | 40.64017 | 3.87993 | 13593 ft | 351 kts | 150° |
| 2026-04-20 15:25 | 40.61946 | 3.89647 | 13172 ft | 349 kts | 150° |
| 2026-04-20 15:26 | 40.59892 | 3.91288 | 12740 ft | 347 kts | 150° |
| 2026-04-20 15:26 | 40.57820 | 3.92941 | 12324 ft | 344 kts | 150° |
| 2026-04-20 15:26 | 40.55780 | 3.94567 | 11911 ft | 342 kts | 150° |
| 2026-04-20 15:26 | 40.53757 | 3.96177 | 11504 ft | 340 kts | 150° |
| 2026-04-20 15:27 | 40.51753 | 3.97764 | 11067 ft | 338 kts | 151° |
| 2026-04-20 15:27 | 40.49649 | 3.99127 | 10643 ft | 334 kts | 159° |
| 2026-04-20 15:27 | 40.47455 | 4.00104 | 10236 ft | 331 kts | 165° |
| 2026-04-20 15:27 | 40.45280 | 4.00891 | 10094 ft | 318 kts | 166° |
| 2026-04-20 15:28 | 40.43175 | 4.01627 | 9999 ft | 305 kts | 166° |
| 2026-04-20 15:28 | 40.41175 | 4.02326 | 9804 ft | 297 kts | 166° |
| 2026-04-20 15:28 | 40.39172 | 4.03029 | 9428 ft | 295 kts | 166° |
| 2026-04-20 15:28 | 40.37221 | 4.03715 | 9082 ft | 293 kts | 166° |
| 2026-04-20 15:29 | 40.35238 | 4.04416 | 8724 ft | 291 kts | 166° |
| 2026-04-20 15:29 | 40.33299 | 4.05101 | 8387 ft | 289 kts | 166° |
| 2026-04-20 15:29 | 40.31361 | 4.05787 | 8049 ft | 286 kts | 166° |
| 2026-04-20 15:29 | 40.29448 | 4.06465 | 7726 ft | 284 kts | 166° |
| 2026-04-20 15:30 | 40.27543 | 4.07140 | 7399 ft | 282 kts | 166° |
| 2026-04-20 15:30 | 40.25661 | 4.07807 | 7061 ft | 280 kts | 166° |
| 2026-04-20 15:30 | 40.23777 | 4.08472 | 6723 ft | 278 kts | 166° |
| 2026-04-20 15:30 | 40.21925 | 4.09127 | 6403 ft | 276 kts | 166° |
| 2026-04-20 15:31 | 40.20067 | 4.09784 | 6076 ft | 275 kts | 166° |
| 2026-04-20 15:31 | 40.18224 | 4.10435 | 5753 ft | 273 kts | 166° |
| 2026-04-20 15:31 | 40.16413 | 4.11074 | 5435 ft | 271 kts | 166° |
| 2026-04-20 15:31 | 40.14593 | 4.11716 | 5115 ft | 269 kts | 165° |
| 2026-04-20 15:32 | 40.12805 | 4.12345 | 4805 ft | 266 kts | 165° |
| 2026-04-20 15:32 | 40.11034 | 4.12969 | 4636 ft | 256 kts | 166° |
| 2026-04-20 15:32 | 40.09372 | 4.13676 | 4417 ft | 252 kts | 152° |
| 2026-04-20 15:32 | 40.08080 | 4.15198 | 4034 ft | 255 kts | 122° |
| 2026-04-20 15:33 | 40.07488 | 4.17359 | 3697 ft | 254 kts | 96° |
| 2026-04-20 15:33 | 40.07532 | 4.19634 | 3410 ft | 252 kts | 84° |
| 2026-04-20 15:33 | 40.07694 | 4.21912 | 3156 ft | 248 kts | 87° |
| 2026-04-20 15:33 | 40.07713 | 4.24100 | 3123 ft | 233 kts | 98° |
| 2026-04-20 15:34 | 40.07143 | 4.25988 | 3040 ft | 219 kts | 131° |
| 2026-04-20 15:34 | 40.05959 | 4.27052 | 2956 ft | 204 kts | 166° |
| 2026-04-20 15:34 | 40.04588 | 4.27009 | 2869 ft | 199 kts | 199° |
| 2026-04-20 15:34 | 40.03361 | 4.26288 | 2875 ft | 186 kts | 207° |
| 2026-04-20 15:35 | 40.02242 | 4.25580 | 2753 ft | 173 kts | 202° |
| 2026-04-20 15:35 | 40.01136 | 4.25091 | 2610 ft | 163 kts | 195° |
| 2026-04-20 15:35 | 40.00061 | 4.24755 | 2481 ft | 151 kts | 191° |
| 2026-04-20 15:35 | 39.99028 | 4.24495 | 2492 ft | 150 kts | 189° |
| 2026-04-20 15:36 | 39.97998 | 4.24268 | 2366 ft | 150 kts | 189° |
| 2026-04-20 15:36 | 39.96980 | 4.24058 | 2179 ft | 147 kts | 188° |
| 2026-04-20 15:36 | 39.95958 | 4.23851 | 1999 ft | 147 kts | 188° |
| 2026-04-20 15:36 | 39.94984 | 4.23653 | 1792 ft | 135 kts | 188° |
| 2026-04-20 15:37 | 39.94069 | 4.23466 | 1611 ft | 133 kts | 188° |
| 2026-04-20 15:37 | 39.93150 | 4.23278 | 1445 ft | 133 kts | 189° |
| 2026-04-20 15:37 | 39.92245 | 4.23093 | 1279 ft | 132 kts | 189° |
| 2026-04-20 15:37 | 39.91336 | 4.22907 | 1113 ft | 131 kts | 189° |
| 2026-04-20 15:38 | 39.90438 | 4.22723 | 943 ft | 130 kts | 189° |
| 2026-04-20 15:38 | 39.89540 | 4.22537 | 772 ft | 129 kts | 187° |
| 2026-04-20 15:38 | 39.88652 | 4.22368 | 603 ft | 129 kts | 188° |
| 2026-04-20 15:38 | 39.87759 | 4.22194 | 444 ft | 129 kts | 192° |
| 2026-04-20 15:39 | 39.86876 | 4.21984 | 297 ft | 126 kts | 188° |
| 2026-04-20 15:39 | 39.86126 | 4.21826 | 293 ft | 88 kts | 189° |
| 2026-04-20 15:39 | 39.85796 | 4.21766 | 288 ft | 30 kts | 187° |
| 2026-04-20 15:39 | 39.85592 | 4.21761 | 282 ft | 28 kts | 168° |
| 2026-04-20 15:40 | 39.85474 | 4.21816 | 278 ft | 9 kts | 162° |
| 2026-04-20 15:40 | 39.85425 | 4.21842 | 275 ft | 0 kts | 147° |
| 2026-04-20 15:40 | 39.85424 | 4.21842 | 275 ft | 0 kts | 147° |
| 2026-04-20 15:40 | 39.85406 | 4.21865 | 274 ft | 6 kts | 123° |
| 2026-04-20 15:41 | 39.85422 | 4.21928 | 273 ft | 9 kts | 28° |
| 2026-04-20 15:41 | 39.85482 | 4.21947 | 275 ft | 7 kts | 12° |
| 2026-04-20 15:41 | 39.85527 | 4.21957 | 277 ft | 5 kts | 8° |
| 2026-04-20 15:41 | 39.85615 | 4.21975 | 281 ft | 22 kts | 9° |
| 2026-04-20 15:42 | 39.85759 | 4.22002 | 286 ft | 19 kts | 8° |
| 2026-04-20 15:42 | 39.85890 | 4.22026 | 288 ft | 18 kts | 8° |
| 2026-04-20 15:42 | 39.86021 | 4.22054 | 286 ft | 19 kts | 9° |
| 2026-04-20 15:42 | 39.86138 | 4.22079 | 283 ft | 11 kts | 12° |
| 2026-04-20 15:43 | 39.86188 | 4.22158 | 280 ft | 14 kts | 92° |
| 2026-04-20 15:43 | 39.86225 | 4.22267 | 272 ft | 17 kts | 17° |
| 2026-04-20 15:43 | 39.86360 | 4.22299 | 262 ft | 18 kts | 8° |
| 2026-04-20 15:43 | 39.86452 | 4.22316 | 266 ft | 8 kts | 18° |
| 2026-04-20 15:44 | 39.86470 | 4.22369 | 268 ft | 5 kts | 94° |
| 2026-04-20 15:44 | 39.86469 | 4.22384 | 269 ft | 0 kts | 97° |
| 2026-04-20 15:44 | 39.86469 | 4.22388 | 269 ft | 1 kts | 97° |
| 2026-04-20 15:44 | 39.86467 | 4.22401 | 270 ft | 0 kts | 95° |
| 2026-04-20 15:45 | 39.86467 | 4.22402 | 270 ft | 0 kts | 95° |